createdAt,value
2023-02-16T00:00:52.195Z,4.05
2023-02-16T00:03:21.530Z,4.12
2023-02-16T00:05:48.672Z,4.18
2023-02-16T00:08:15.187Z,4.23
2023-02-16T00:10:42.163Z,4.20
2023-02-16T00:13:47.349Z,4.17
2023-02-16T00:16:18.557Z,4.06
2023-02-16T00:18:45.692Z,4.04
2023-02-16T00:21:12.185Z,4.00
2023-02-16T00:23:38.667Z,3.94
2023-02-16T00:26:05.914Z,3.86
2023-02-16T00:28:32.675Z,3.78
2023-02-16T00:30:59.175Z,3.73
2023-02-16T00:33:25.688Z,3.63
2023-02-16T00:35:52.149Z,3.52
2023-02-16T00:38:18.572Z,3.37
2023-02-16T00:40:45.015Z,3.18
2023-02-16T00:43:25.113Z,3.01
2023-02-16T00:45:51.872Z,2.86
2023-02-16T00:48:18.332Z,2.75
2023-02-16T00:50:44.988Z,2.66
2023-02-16T00:53:11.687Z,2.63
2023-02-16T00:55:39.629Z,2.58
2023-02-16T00:58:25.589Z,2.54
2023-02-16T01:00:55.193Z,2.48
2023-02-16T01:03:27.523Z,2.46
2023-02-16T01:06:14.488Z,2.45
2023-02-16T01:09:00.198Z,2.54
2023-02-16T01:11:27.093Z,2.67
2023-02-16T01:13:56.120Z,2.83
2023-02-16T01:16:26.918Z,2.95
2023-02-16T01:18:53.873Z,2.98
2023-02-16T01:21:23.636Z,2.92
2023-02-16T01:23:50.078Z,2.82
2023-02-16T01:26:19.700Z,2.72
2023-02-16T01:28:47.517Z,2.63
2023-02-16T01:31:16.438Z,2.60
2023-02-16T01:33:43.432Z,2.55
2023-02-16T01:36:33.116Z,2.55
2023-02-16T01:39:00.380Z,2.54
2023-02-16T01:41:54.967Z,2.56
2023-02-16T01:44:25.631Z,2.53
2023-02-16T01:47:05.108Z,2.51
2023-02-16T01:49:31.603Z,2.48
2023-02-16T01:52:06.710Z,2.48
2023-02-16T01:55:03.199Z,2.41
2023-02-16T01:57:41.302Z,2.45
2023-02-16T02:00:14.688Z,2.46
2023-02-16T02:02:45.224Z,2.45
2023-02-16T02:05:37.173Z,2.45
2023-02-16T02:08:39.731Z,2.45
2023-02-16T02:11:17.284Z,2.43
2023-02-16T02:14:00.532Z,2.43
2023-02-16T02:16:28.179Z,2.42
2023-02-16T02:18:55.033Z,2.42
2023-02-16T02:22:03.221Z,2.39
2023-02-16T02:24:57.500Z,2.31
2023-02-16T02:27:27.013Z,2.19
2023-02-16T02:30:13.131Z,2.10
2023-02-16T02:33:17.733Z,2.01
2023-02-16T02:35:56.382Z,1.97
2023-02-16T02:38:53.337Z,1.90
2023-02-16T02:42:01.903Z,1.81
2023-02-16T02:44:30.096Z,1.78
2023-02-16T02:46:56.815Z,1.80
2023-02-16T02:49:23.350Z,1.81
2023-02-16T02:51:51.044Z,1.82
2023-02-16T02:54:50.784Z,1.84
2023-02-16T02:57:42.266Z,1.90
2023-02-16T03:00:33.218Z,1.99
2023-02-16T03:03:06.309Z,2.06
2023-02-16T03:05:34.812Z,2.08
2023-02-16T03:08:14.324Z,2.10
2023-02-16T03:11:12.859Z,2.10
2023-02-16T03:13:43.153Z,2.10
2023-02-16T03:16:27.970Z,2.11
2023-02-16T03:19:15.179Z,2.10
2023-02-16T03:22:00.510Z,2.09
2023-02-16T03:24:48.929Z,2.06
2023-02-16T03:27:38.718Z,2.13
2023-02-16T03:30:06.836Z,2.13
2023-02-16T03:32:34.534Z,2.15
2023-02-16T03:35:01.080Z,2.18
2023-02-16T03:37:27.613Z,2.21
2023-02-16T03:40:12.975Z,2.25
2023-02-16T03:42:39.467Z,2.27
2023-02-16T03:45:06.242Z,2.27
2023-02-16T03:47:32.672Z,2.29
2023-02-16T03:49:59.183Z,2.30
2023-02-16T03:52:25.552Z,2.30
2023-02-16T03:54:51.934Z,2.30
2023-02-16T03:57:18.316Z,2.31
2023-02-16T03:59:44.689Z,2.32
2023-02-16T04:02:11.189Z,2.31
2023-02-16T04:04:37.675Z,2.30
2023-02-16T04:07:04.075Z,2.30
2023-02-16T04:09:30.467Z,2.26
2023-02-16T04:12:15.562Z,2.23
2023-02-16T04:14:43.679Z,2.17
2023-02-16T04:17:10.356Z,2.08
2023-02-16T04:19:36.772Z,2.04
2023-02-16T04:22:03.183Z,1.97
2023-02-16T04:24:29.625Z,1.93
2023-02-16T04:26:56.014Z,1.87
2023-02-16T04:29:22.610Z,1.77
2023-02-16T04:31:49.866Z,1.74
2023-02-16T04:34:16.436Z,1.72
2023-02-16T04:36:42.829Z,1.71
2023-02-16T04:39:09.216Z,1.73
2023-02-16T04:41:35.695Z,1.74
2023-02-16T04:44:02.092Z,1.79
2023-02-16T04:46:28.543Z,1.84
2023-02-16T04:48:55.499Z,1.85
2023-02-16T04:51:21.886Z,1.83
2023-02-16T04:53:48.298Z,1.79
2023-02-16T04:56:15.143Z,1.79
2023-02-16T04:58:41.619Z,1.82
2023-02-16T05:01:08.432Z,1.82
2023-02-16T05:03:34.933Z,1.85
2023-02-16T05:06:01.322Z,1.89
2023-02-16T05:08:27.753Z,1.94
2023-02-16T05:11:12.942Z,1.99
2023-02-16T05:13:57.619Z,2.02
2023-02-16T05:16:24.671Z,1.93
2023-02-16T05:18:51.051Z,1.92
2023-02-16T05:21:32.637Z,1.90
2023-02-16T05:24:04.487Z,1.86
2023-02-16T05:26:32.077Z,1.82
2023-02-16T05:28:58.651Z,1.73
2023-02-16T05:31:26.300Z,1.77
2023-02-16T05:33:53.236Z,1.82
2023-02-16T05:36:20.231Z,1.87
2023-02-16T05:38:46.908Z,1.91
2023-02-16T05:41:23.293Z,1.90
2023-02-16T05:43:52.236Z,1.93
2023-02-16T05:46:19.589Z,1.91
2023-02-16T05:48:46.080Z,1.98
2023-02-16T05:51:13.020Z,1.97
2023-02-16T05:53:39.467Z,1.96
2023-02-16T05:56:07.437Z,1.91
2023-02-16T05:58:33.982Z,1.87
2023-02-16T06:01:00.919Z,1.78
2023-02-16T06:03:27.758Z,1.71
2023-02-16T06:05:56.005Z,1.67
2023-02-16T06:08:22.848Z,1.64
2023-02-16T06:10:50.226Z,1.64
2023-02-16T06:13:17.472Z,1.65
2023-02-16T06:15:44.206Z,1.66
2023-02-16T06:18:11.385Z,1.63
2023-02-16T06:20:39.019Z,1.61
2023-02-16T06:23:06.858Z,1.62
2023-02-16T06:25:33.887Z,1.69
2023-02-16T06:28:00.397Z,1.75
2023-02-16T06:30:27.183Z,1.80
2023-02-16T06:32:53.655Z,1.82
2023-02-16T06:35:20.472Z,1.79
2023-02-16T06:37:46.942Z,1.76
2023-02-16T06:40:14.300Z,1.74
2023-02-16T06:42:42.170Z,1.77
2023-02-16T06:45:09.903Z,1.81
2023-02-16T06:47:37.211Z,1.85
2023-02-16T06:50:06.627Z,1.83
2023-02-16T06:52:33.108Z,1.81
2023-02-16T06:54:59.534Z,1.80
2023-02-16T06:57:25.909Z,1.78
2023-02-16T06:59:52.295Z,1.74
2023-02-16T07:02:18.741Z,1.74
2023-02-16T07:04:45.545Z,1.74
2023-02-16T07:07:11.938Z,1.77
2023-02-16T07:09:38.888Z,1.86
2023-02-16T07:12:05.755Z,1.92
2023-02-16T07:14:32.339Z,2.00
2023-02-16T07:17:03.052Z,2.04
2023-02-16T07:19:32.696Z,2.09
2023-02-16T07:22:02.667Z,2.10
2023-02-16T07:24:29.077Z,2.10
2023-02-16T07:26:55.938Z,2.06
2023-02-16T07:29:22.465Z,2.06
2023-02-16T07:31:49.064Z,2.08
2023-02-16T07:34:15.549Z,2.14
2023-02-16T07:36:42.282Z,2.18
2023-02-16T07:39:08.695Z,2.26
2023-02-16T07:41:35.083Z,2.29
2023-02-16T07:44:07.516Z,2.33
2023-02-16T07:46:33.918Z,2.38
2023-02-16T07:49:00.378Z,2.47
2023-02-16T07:51:30.590Z,2.54
2023-02-16T07:53:58.149Z,2.58
2023-02-16T07:56:28.254Z,2.61
2023-02-16T07:58:59.325Z,2.65
2023-02-16T08:01:26.296Z,2.65
2023-02-16T08:03:53.512Z,2.68
2023-02-16T08:06:20.254Z,2.72
2023-02-16T08:08:47.077Z,2.75
2023-02-16T08:11:17.822Z,2.80
2023-02-16T08:13:45.309Z,2.81
2023-02-16T08:16:14.750Z,2.84
2023-02-16T08:18:45.127Z,2.90
2023-02-16T08:21:17.316Z,3.04
2023-02-16T08:23:47.572Z,3.18
2023-02-16T08:26:17.156Z,3.37
2023-02-16T08:28:47.487Z,3.57
2023-02-16T08:31:18.940Z,3.80
2023-02-16T08:33:46.810Z,4.02
2023-02-16T08:36:21.656Z,4.24
2023-02-16T08:38:50.858Z,4.44
2023-02-16T08:41:21.389Z,4.66
2023-02-16T08:43:48.449Z,4.87
2023-02-16T08:46:15.950Z,5.07
2023-02-16T08:48:45.146Z,5.27
2023-02-16T08:51:17.562Z,5.48
2023-02-16T08:53:47.854Z,5.65
2023-02-16T08:56:16.709Z,5.82
2023-02-16T08:58:45.840Z,6.00
2023-02-16T09:01:15.122Z,6.17
2023-02-16T09:03:44.840Z,6.34
2023-02-16T09:06:13.388Z,6.51
2023-02-16T09:08:40.687Z,6.63
2023-02-16T09:11:11.985Z,6.76
2023-02-16T09:13:39.658Z,6.90
2023-02-16T09:16:11.479Z,6.98
2023-02-16T09:18:39.038Z,7.09
2023-02-16T09:21:11.399Z,7.22
2023-02-16T09:23:40.158Z,7.35
2023-02-16T09:26:09.588Z,7.48
2023-02-16T09:28:40.230Z,7.59
2023-02-16T09:31:11.894Z,7.71
2023-02-16T09:33:39.971Z,7.82
2023-02-16T09:36:08.791Z,7.95
2023-02-16T09:38:36.569Z,8.09
2023-02-16T09:41:41.312Z,8.20
2023-02-16T09:44:17.756Z,8.29
2023-02-16T09:46:44.744Z,8.44
2023-02-16T09:49:24.952Z,8.56
2023-02-16T09:52:33.147Z,8.73
2023-02-16T09:55:01.411Z,8.90
2023-02-16T09:57:55.663Z,9.11
2023-02-16T10:00:44.187Z,9.28
2023-02-16T10:03:18.181Z,9.44
2023-02-16T10:06:05.560Z,9.61
2023-02-16T10:08:39.942Z,9.76
2023-02-16T10:11:41.508Z,9.91
2023-02-16T10:14:30.680Z,10.07
2023-02-16T10:17:09.046Z,10.17
2023-02-16T10:19:48.800Z,10.30
2023-02-16T10:22:28.620Z,10.29
2023-02-16T10:25:20.131Z,10.55
2023-02-16T10:27:50.066Z,10.74
2023-02-16T10:30:22.183Z,10.88
2023-02-16T10:32:56.277Z,11.05
2023-02-16T10:35:47.061Z,11.19
2023-02-16T10:38:43.329Z,11.33
2023-02-16T10:41:32.756Z,11.46
2023-02-16T10:44:30.729Z,11.55
2023-02-16T10:47:01.679Z,11.74
2023-02-16T10:49:30.083Z,11.95
2023-02-16T10:51:57.725Z,12.07
2023-02-16T10:54:32.358Z,12.14
2023-02-16T10:57:01.569Z,12.28
2023-02-16T10:59:39.463Z,12.44
2023-02-16T11:02:20.826Z,12.57
2023-02-16T11:04:48.607Z,12.68
2023-02-16T11:07:33.830Z,12.72
2023-02-16T11:10:19.448Z,12.85
2023-02-16T11:12:46.246Z,13.00
2023-02-16T11:15:19.087Z,13.16
2023-02-16T11:17:52.521Z,13.42
2023-02-16T11:20:47.533Z,13.64
2023-02-16T11:23:31.213Z,13.85
2023-02-16T11:26:06.484Z,14.00
2023-02-16T11:28:38.598Z,14.08
2023-02-16T11:31:17.860Z,14.04
2023-02-16T11:33:59.464Z,14.02
2023-02-16T11:36:42.774Z,13.96
2023-02-16T11:39:15.028Z,13.87
2023-02-16T11:41:51.769Z,13.99
2023-02-16T11:44:27.014Z,14.17
2023-02-16T11:46:56.507Z,14.35
2023-02-16T11:49:29.617Z,14.44
2023-02-16T11:51:56.231Z,14.55
2023-02-16T11:54:22.851Z,14.62
2023-02-16T11:57:10.039Z,14.76
2023-02-16T11:59:39.898Z,14.94
2023-02-16T12:02:12.151Z,15.07
2023-02-16T12:04:54.056Z,15.17
2023-02-16T12:07:50.056Z,15.32
2023-02-16T12:10:21.673Z,15.52
2023-02-16T12:12:55.299Z,15.69
2023-02-16T12:15:42.337Z,15.76
2023-02-16T12:18:26.941Z,15.71
2023-02-16T12:21:17.104Z,15.73
2023-02-16T12:24:02.222Z,15.92
2023-02-16T12:26:51.870Z,15.97
2023-02-16T12:30:09.702Z,16.21
2023-02-16T12:32:45.705Z,16.49
2023-02-16T12:35:12.745Z,16.76
2023-02-16T12:37:46.691Z,16.88
2023-02-16T12:40:51.858Z,16.98
2023-02-16T12:43:31.141Z,17.07
2023-02-16T12:46:04.945Z,17.02
2023-02-16T12:48:45.749Z,17.10
2023-02-16T12:51:18.310Z,16.94
2023-02-16T12:53:57.595Z,16.56
2023-02-16T12:56:32.981Z,16.29
2023-02-16T12:59:17.953Z,16.28
2023-02-16T13:01:47.763Z,16.16
2023-02-16T13:05:03.471Z,16.18
2023-02-16T13:07:38.338Z,16.23
2023-02-16T13:10:36.328Z,16.62
2023-02-16T13:13:08.985Z,17.01
2023-02-16T13:15:43.494Z,17.42
2023-02-16T13:18:21.165Z,17.55
2023-02-16T13:20:55.675Z,17.66
2023-02-16T13:23:39.063Z,17.79
2023-02-16T13:26:35.127Z,17.84
2023-02-16T13:29:28.966Z,17.94
2023-02-16T13:32:20.244Z,17.95
2023-02-16T13:35:02.772Z,17.67
2023-02-16T13:38:08.097Z,17.76
2023-02-16T13:40:40.514Z,17.61
2023-02-16T13:43:18.897Z,17.54
2023-02-16T13:45:47.455Z,17.73
2023-02-16T13:48:31.607Z,17.95
2023-02-16T13:51:02.470Z,17.75
2023-02-16T13:53:52.492Z,17.27
2023-02-16T13:56:37.171Z,16.66
2023-02-16T13:59:18.758Z,16.18
2023-02-16T14:01:46.490Z,15.83
2023-02-16T14:04:32.881Z,15.74
2023-02-16T14:07:07.232Z,15.94
2023-02-16T14:09:46.960Z,16.07
2023-02-16T14:12:16.589Z,16.13
2023-02-16T14:14:46.264Z,16.04
2023-02-16T14:17:18.880Z,15.75
2023-02-16T14:19:55.588Z,15.43
2023-02-16T14:22:29.233Z,15.33
2023-02-16T14:24:58.453Z,15.14
2023-02-16T14:27:47.306Z,14.83
2023-02-16T14:30:35.641Z,14.59
2023-02-16T14:33:16.958Z,14.26
2023-02-16T14:35:58.727Z,14.10
2023-02-16T14:38:40.516Z,14.05
2023-02-16T14:41:23.800Z,14.29
2023-02-16T14:44:02.449Z,14.45
2023-02-16T14:47:00.319Z,14.31
2023-02-16T14:50:05.335Z,14.09
2023-02-16T14:52:53.816Z,13.77
2023-02-16T14:55:55.101Z,13.60
2023-02-16T14:58:29.628Z,13.48
2023-02-16T15:01:11.181Z,13.47
2023-02-16T15:03:45.331Z,13.46
2023-02-16T15:06:19.666Z,13.36
2023-02-16T15:08:56.950Z,13.21
2023-02-16T15:12:01.828Z,13.08
2023-02-16T15:14:29.832Z,12.94
2023-02-16T15:16:57.986Z,12.88
2023-02-16T15:19:29.528Z,12.78
2023-02-16T15:22:28.982Z,12.71
2023-02-16T15:25:07.894Z,12.64
2023-02-16T15:27:34.320Z,12.58
2023-02-16T15:30:22.323Z,12.53
2023-02-16T15:32:56.136Z,12.49
2023-02-16T15:35:27.378Z,12.46
2023-02-16T15:38:05.885Z,12.41
2023-02-16T15:40:35.029Z,12.33
2023-02-16T15:43:18.077Z,12.28
2023-02-16T15:45:49.010Z,12.26
2023-02-16T15:48:24.848Z,12.22
2023-02-16T15:50:57.220Z,12.12
2023-02-16T15:53:34.644Z,12.12
2023-02-16T15:56:04.785Z,12.09
2023-02-16T15:58:32.860Z,12.08
2023-02-16T16:01:00.409Z,12.06
2023-02-16T16:03:26.990Z,12.10
2023-02-16T16:06:06.254Z,12.11
2023-02-16T16:08:33.272Z,12.08
2023-02-16T16:11:00.342Z,12.02
2023-02-16T16:13:29.973Z,12.03
2023-02-16T16:16:01.748Z,11.99
2023-02-16T16:18:50.148Z,11.89
2023-02-16T16:21:24.818Z,11.79
2023-02-16T16:24:05.634Z,11.69
2023-02-16T16:26:52.545Z,11.56
2023-02-16T16:29:29.972Z,11.47
2023-02-16T16:31:56.716Z,11.36
2023-02-16T16:34:35.543Z,11.27
2023-02-16T16:37:03.784Z,11.19
2023-02-16T16:39:33.512Z,11.13
2023-02-16T16:42:00.092Z,11.06
2023-02-16T16:44:34.286Z,10.99
2023-02-16T16:47:29.422Z,10.95
2023-02-16T16:50:09.312Z,10.88
2023-02-16T16:52:42.524Z,10.82
2023-02-16T16:55:34.988Z,10.77
2023-02-16T16:58:08.093Z,10.72
2023-02-16T17:00:38.349Z,10.66
2023-02-16T17:03:07.232Z,10.59
2023-02-16T17:05:35.864Z,10.56
2023-02-16T17:08:02.318Z,10.54
2023-02-16T17:10:29.423Z,10.50
2023-02-16T17:12:58.946Z,10.46
2023-02-16T17:15:28.384Z,10.39
2023-02-16T17:17:55.546Z,10.30
2023-02-16T17:20:21.958Z,10.25
2023-02-16T17:22:48.446Z,10.25
2023-02-16T17:25:15.128Z,10.24
2023-02-16T17:27:41.505Z,10.18
2023-02-16T17:30:08.402Z,10.11
2023-02-16T17:32:34.817Z,10.02
2023-02-16T17:35:01.299Z,9.93
2023-02-16T17:37:27.797Z,9.84
2023-02-16T17:39:54.175Z,9.79
2023-02-16T17:42:20.673Z,9.72
2023-02-16T17:44:47.075Z,9.72
2023-02-16T17:47:15.506Z,9.74
2023-02-16T17:49:41.936Z,9.72
2023-02-16T17:52:12.628Z,9.68
2023-02-16T17:54:39.471Z,9.64
2023-02-16T17:57:05.918Z,9.62
2023-02-16T17:59:34.277Z,9.63
2023-02-16T18:02:00.757Z,9.65
2023-02-16T18:04:27.184Z,9.65
2023-02-16T18:06:53.675Z,9.59
2023-02-16T18:09:24.258Z,9.56
2023-02-16T18:11:51.073Z,9.53
2023-02-16T18:14:17.681Z,9.49
2023-02-16T18:16:44.199Z,9.45
2023-02-16T18:19:14.972Z,9.47
2023-02-16T18:21:41.417Z,9.46
2023-02-16T18:24:07.893Z,9.37
2023-02-16T18:26:34.520Z,9.43
2023-02-16T18:29:00.922Z,9.42
2023-02-16T18:31:27.463Z,9.41
2023-02-16T18:33:54.026Z,9.42
2023-02-16T18:36:20.432Z,9.43
2023-02-16T18:38:46.912Z,9.43
2023-02-16T18:41:13.729Z,9.39
2023-02-16T18:43:40.173Z,9.42
2023-02-16T18:46:08.146Z,9.44
2023-02-16T18:48:34.811Z,9.47
2023-02-16T18:51:09.607Z,9.47
2023-02-16T18:53:38.909Z,9.47
2023-02-16T18:56:07.403Z,9.49
2023-02-16T18:58:35.051Z,9.48
2023-02-16T19:01:01.513Z,9.45
2023-02-16T19:03:30.070Z,9.40
2023-02-16T19:05:56.707Z,9.40
2023-02-16T19:08:23.257Z,9.39
2023-02-16T19:10:49.642Z,9.34
2023-02-16T19:13:16.050Z,9.36
2023-02-16T19:15:42.905Z,9.35
2023-02-16T19:18:09.276Z,9.36
2023-02-16T19:20:36.029Z,9.35
2023-02-16T19:23:02.470Z,9.34
2023-02-16T19:25:29.276Z,9.33
2023-02-16T19:27:55.708Z,9.31
2023-02-16T19:30:24.162Z,9.29
2023-02-16T19:32:50.682Z,9.29
2023-02-16T19:35:18.067Z,9.30
2023-02-16T19:37:44.655Z,9.29
2023-02-16T19:40:11.894Z,9.26
2023-02-16T19:42:39.024Z,9.24
2023-02-16T19:45:06.065Z,9.23
2023-02-16T19:47:32.865Z,9.25
2023-02-16T19:49:59.291Z,9.27
2023-02-16T19:52:25.853Z,9.28
2023-02-16T19:54:52.368Z,9.31
2023-02-16T19:57:18.920Z,9.32
2023-02-16T19:59:45.340Z,9.34
2023-02-16T20:02:12.947Z,9.36
2023-02-16T20:04:39.349Z,9.36
2023-02-16T20:07:05.886Z,9.35
2023-02-16T20:09:32.276Z,9.36
2023-02-16T20:11:58.740Z,9.35
2023-02-16T20:14:25.167Z,9.35
2023-02-16T20:16:51.821Z,9.35
2023-02-16T20:19:18.366Z,9.33
2023-02-16T20:21:46.218Z,9.31
2023-02-16T20:24:13.460Z,9.34
2023-02-16T20:26:43.072Z,9.31
2023-02-16T20:29:12.401Z,9.30
2023-02-16T20:31:47.128Z,9.27
2023-02-16T20:34:13.613Z,9.24
2023-02-16T20:36:40.016Z,9.22
2023-02-16T20:39:07.789Z,9.18
2023-02-16T20:41:34.368Z,9.17
2023-02-16T20:44:01.126Z,9.13
2023-02-16T20:46:27.665Z,9.16
2023-02-16T20:48:54.265Z,9.17
2023-02-16T20:51:20.888Z,9.19
2023-02-16T20:53:47.588Z,9.18
2023-02-16T20:56:16.939Z,9.17
2023-02-16T20:58:45.101Z,9.18
2023-02-16T21:01:21.990Z,9.17
2023-02-16T21:03:50.301Z,9.14
2023-02-16T21:06:17.352Z,9.12
2023-02-16T21:08:44.115Z,9.15
2023-02-16T21:11:10.842Z,9.03
2023-02-16T21:13:38.616Z,9.12
2023-02-16T21:16:07.163Z,9.12
2023-02-16T21:18:34.949Z,9.11
2023-02-16T21:21:02.006Z,9.08
2023-02-16T21:23:28.574Z,9.07
2023-02-16T21:26:03.461Z,9.05
2023-02-16T21:28:30.410Z,9.03
2023-02-16T21:31:02.209Z,9.00
2023-02-16T21:33:28.677Z,8.94
2023-02-16T21:36:02.747Z,8.91
2023-02-16T21:38:29.356Z,8.82
2023-02-16T21:41:21.488Z,8.86
2023-02-16T21:43:47.917Z,8.83
2023-02-16T21:46:14.400Z,8.82
2023-02-16T21:48:47.304Z,8.80
2023-02-16T21:51:28.754Z,8.78
2023-02-16T21:53:55.608Z,8.78
2023-02-16T21:56:30.986Z,8.76
2023-02-16T21:58:57.994Z,8.73
2023-02-16T22:01:28.011Z,8.77
2023-02-16T22:03:59.196Z,8.75
2023-02-16T22:06:26.837Z,8.73
2023-02-16T22:08:53.654Z,8.69
2023-02-16T22:11:20.851Z,8.65
2023-02-16T22:13:47.549Z,8.66
2023-02-16T22:16:17.532Z,8.64
2023-02-16T22:18:44.468Z,8.65
2023-02-16T22:21:11.502Z,8.66
2023-02-16T22:23:39.168Z,8.67
2023-02-16T22:26:07.108Z,8.69
2023-02-16T22:28:35.453Z,8.72
2023-02-16T22:31:09.106Z,8.76
2023-02-16T22:33:35.627Z,8.77
2023-02-16T22:36:13.705Z,8.81
2023-02-16T22:38:44.838Z,8.79
2023-02-16T22:41:11.990Z,8.82
2023-02-16T22:43:40.511Z,8.74
2023-02-16T22:46:09.383Z,8.81
2023-02-16T22:48:36.334Z,8.78
2023-02-16T22:51:04.788Z,8.77
2023-02-16T22:53:31.375Z,8.74
2023-02-16T22:55:57.829Z,8.79
2023-02-16T22:58:24.250Z,8.78
2023-02-16T23:00:51.494Z,8.77
2023-02-16T23:03:18.384Z,8.76
2023-02-16T23:05:44.995Z,8.77
2023-02-16T23:08:11.723Z,8.75
2023-02-16T23:10:39.856Z,8.76
2023-02-16T23:13:08.771Z,8.75
2023-02-16T23:15:36.090Z,8.76
2023-02-16T23:18:02.648Z,8.77
2023-02-16T23:20:29.421Z,8.79
2023-02-16T23:22:55.852Z,8.78
2023-02-16T23:25:34.048Z,8.79
2023-02-16T23:28:03.416Z,8.79
2023-02-16T23:30:30.840Z,8.77
2023-02-16T23:32:57.653Z,8.81
2023-02-16T23:35:24.144Z,8.79
2023-02-16T23:37:50.533Z,8.80
2023-02-16T23:40:17.155Z,8.76
2023-02-16T23:42:43.586Z,8.74
2023-02-16T23:45:10.023Z,8.69
2023-02-16T23:47:36.508Z,8.68
2023-02-16T23:50:02.957Z,8.64
2023-02-16T23:52:29.366Z,8.61
2023-02-16T23:54:55.776Z,8.59
2023-02-16T23:57:22.167Z,8.55
2023-02-16T23:59:48.630Z,8.52
